Time;durP1;ratioP1;P1;durP2;ratioP2;P2;SDS_P1;SDS_P2;PMS_P1;PMS_P2;Temp;Humidity;BMP_temperature;BMP_pressure;BME280_temperature;BME280_humidity;BME280_pressure;Samples;Min_cycle;Max_cycle;Signal;HPM_P1;HPM_P2
2023/03/26 00:01:20;;;;;;;38.53;20.40;;;7.80;99.90;;;;;;5052029;28;20032;-77
2023/03/26 00:03:52;;;;;;;38.42;18.67;;;7.80;99.90;;;;;;5053642;28;20035;-80
2023/03/26 00:06:21;;;;;;;33.33;18.00;;;7.80;99.90;;;;;;5052744;28;20079;-78
2023/03/26 00:08:48;;;;;;;34.72;18.65;;;7.80;99.90;;;;;;5053184;28;20494;-78
2023/03/26 00:11:16;;;;;;;33.15;17.58;;;7.80;99.90;;;;;;5053080;28;20021;-78
2023/03/26 00:13:45;;;;;;;35.67;18.65;;;7.80;99.90;;;;;;5052080;28;20029;-81
2023/03/26 00:16:13;;;;;;;38.45;18.42;;;7.80;99.90;;;;;;5051868;28;20032;-78
2023/03/26 00:18:41;;;;;;;34.65;16.77;;;7.80;99.90;;;;;;5052722;28;20052;-78
2023/03/26 00:21:08;;;;;;;31.55;15.13;;;7.80;99.90;;;;;;5053200;28;20032;-79
2023/03/26 00:23:34;;;;;;;31.10;15.15;;;7.80;99.90;;;;;;5053178;28;20502;-81
2023/03/26 00:26:01;;;;;;;31.08;14.75;;;7.80;99.90;;;;;;5052460;28;20029;-80
2023/03/26 00:28:28;;;;;;;31.92;14.10;;;7.80;99.90;;;;;;5051803;28;20128;-79
2023/03/26 00:31:02;;;;;;;27.30;13.73;;;7.80;99.90;;;;;;5053212;28;20040;-80
2023/03/26 00:33:30;;;;;;;30.17;14.38;;;7.80;99.90;;;;;;5049534;28;20036;-79
2023/03/26 00:35:59;;;;;;;26.20;13.10;;;7.80;99.90;;;;;;5052669;28;20028;-79
2023/03/26 00:38:26;;;;;;;28.45;13.98;;;7.80;99.90;;;;;;5047288;28;20040;-79
2023/03/26 00:40:53;;;;;;;34.60;16.52;;;7.80;99.90;;;;;;5052485;28;20025;-79
2023/03/26 00:43:20;;;;;;;31.42;15.15;;;7.80;99.90;;;;;;5053139;28;20099;-83
2023/03/26 00:45:53;;;;;;;34.58;15.43;;;7.90;99.90;;;;;;5052651;28;20542;-78
2023/03/26 00:48:21;;;;;;;32.15;16.75;;;7.80;99.90;;;;;;5052661;28;20128;-80
2023/03/26 00:50:48;;;;;;;29.58;14.55;;;7.80;99.90;;;;;;5051614;28;20025;-79
2023/03/26 00:53:15;;;;;;;37.42;17.50;;;7.80;99.90;;;;;;5051307;28;20360;-78
2023/03/26 00:55:42;;;;;;;40.72;19.98;;;7.80;99.90;;;;;;5051582;28;20452;-80
2023/03/26 00:58:11;;;;;;;38.88;20.05;;;7.90;99.90;;;;;;5051573;28;20398;-78
2023/03/26 01:01:08;;;;;;;34.00;16.52;;;7.80;99.90;;;;;;5053387;28;20040;-77
2023/03/26 01:03:36;;;;;;;41.28;22.20;;;7.80;99.90;;;;;;5029155;28;20041;-79
2023/03/26 01:06:34;;;;;;;40.25;21.15;;;7.70;99.90;;;;;;5017686;28;20391;-77
2023/03/26 01:09:19;;;;;;;41.58;19.63;;;7.60;99.90;;;;;;4955767;29;20070;-77
2023/03/26 01:11:47;;;;;;;38.83;19.58;;;7.70;99.90;;;;;;4956307;29;20102;-79
2023/03/26 01:14:24;;;;;;;33.53;16.33;;;7.70;99.90;;;;;;4949380;29;20044;-79
2023/03/26 01:16:59;;;;;;;31.63;17.10;;;7.60;99.90;;;;;;4940068;29;20041;-79
2023/03/26 01:19:43;;;;;;;33.05;15.57;;;7.60;99.90;;;;;;4955590;28;20433;-78
2023/03/26 01:22:14;;;;;;;32.65;15.70;;;7.50;99.90;;;;;;4955358;29;20051;-78
2023/03/26 01:24:40;;;;;;;28.70;15.18;;;7.50;99.90;;;;;;4955964;29;20035;-79
2023/03/26 01:27:18;;;;;;;34.58;15.80;;;7.50;99.90;;;;;;4955648;29;20051;-79
2023/03/26 01:29:57;;;;;;;30.52;14.77;;;7.40;99.90;;;;;;4955542;29;20031;-78
2023/03/26 01:32:31;;;;;;;25.60;14.05;;;7.50;99.90;;;;;;4943353;28;20043;-77
2023/03/26 01:35:11;;;;;;;22.73;11.40;;;7.50;99.90;;;;;;4945305;29;20103;-79
2023/03/26 01:38:23;;;;;;;24.17;12.38;;;7.50;99.90;;;;;;4954262;29;20109;-76
2023/03/26 01:41:04;;;;;;;;;;;7.50;99.90;;;;;;4964196;28;20113;-78
2023/03/26 01:43:37;;;;;;;21.33;10.75;;;7.50;99.90;;;;;;4974980;28;19969;-78
2023/03/26 01:46:08;;;;;;;26.25;11.52;;;7.50;99.90;;;;;;5036747;28;20550;-81
2023/03/26 01:48:37;;;;;;;19.00;9.80;;;7.50;99.90;;;;;;5049051;28;20055;-77
2023/03/26 01:51:04;;;;;;;31.52;14.25;;;7.40;99.90;;;;;;5055330;28;20021;-77
2023/03/26 01:53:32;;;;;;;30.60;17.27;;;7.30;99.90;;;;;;5054648;28;20029;-77
2023/03/26 01:56:12;;;;;;;20.02;12.20;;;7.20;99.90;;;;;;5054095;28;20108;-78
2023/03/26 01:59:05;;;;;;;27.05;12.05;;;7.10;99.90;;;;;;5055277;28;20033;-80
2023/03/26 02:01:47;;;;;;;23.02;12.07;;;7.00;99.90;;;;;;5054207;28;20029;-78
2023/03/26 02:04:22;;;;;;;31.48;15.15;;;7.00;99.90;;;;;;5054588;28;20467;-78
2023/03/26 02:07:06;;;;;;;31.77;15.10;;;7.00;99.90;;;;;;5055230;28;20048;-79
2023/03/26 02:09:40;;;;;;;30.58;15.27;;;6.90;99.90;;;;;;5054342;28;20116;-80
2023/03/26 02:12:08;;;;;;;28.42;14.52;;;6.90;99.90;;;;;;5055294;28;20052;-80
2023/03/26 02:14:35;;;;;;;27.63;14.57;;;6.80;99.90;;;;;;5055249;28;20352;-80
2023/03/26 02:17:00;;;;;;;26.70;14.15;;;6.80;99.90;;;;;;5053386;28;20028;-78
2023/03/26 02:19:26;;;;;;;25.52;13.82;;;6.80;99.90;;;;;;5053135;28;20086;-80
2023/03/26 02:21:52;;;;;;;29.17;14.52;;;6.80;99.90;;;;;;5053575;28;20098;-82
2023/03/26 02:24:18;;;;;;;29.80;15.10;;;6.80;99.90;;;;;;5052509;28;20036;-78
2023/03/26 02:26:44;;;;;;;37.22;19.15;;;6.80;99.90;;;;;;5052888;28;20380;-80
2023/03/26 02:29:12;;;;;;;44.53;19.60;;;6.80;99.90;;;;;;5053106;28;20035;-79
2023/03/26 02:31:38;;;;;;;41.00;18.65;;;6.70;99.90;;;;;;5053697;28;20438;-79
2023/03/26 02:34:03;;;;;;;38.35;18.95;;;6.60;99.90;;;;;;5053460;28;20471;-78
2023/03/26 02:36:29;;;;;;;31.02;17.58;;;6.50;99.90;;;;;;5055045;28;20029;-78
2023/03/26 02:38:56;;;;;;;31.80;16.52;;;6.40;99.90;;;;;;5054609;28;20103;-81
2023/03/26 02:41:22;;;;;;;28.20;14.45;;;6.40;99.90;;;;;;5053305;28;20475;-78
2023/03/26 02:43:48;;;;;;;30.80;16.15;;;6.40;99.90;;;;;;5054717;28;20116;-78
2023/03/26 02:46:14;;;;;;;32.33;15.98;;;6.40;99.90;;;;;;5054333;28;20033;-80
2023/03/26 02:48:40;;;;;;;35.70;16.40;;;6.40;99.90;;;;;;5054860;28;20356;-77
2023/03/26 02:51:06;;;;;;;31.25;15.40;;;6.40;99.90;;;;;;5047294;28;20112;-80
2023/03/26 02:53:32;;;;;;;35.03;16.80;;;6.40;99.90;;;;;;5053068;28;20041;-79
2023/03/26 02:55:59;;;;;;;36.63;18.13;;;6.50;99.90;;;;;;5054375;28;20029;-79
2023/03/26 02:58:28;;;;;;;31.73;17.98;;;6.40;99.90;;;;;;5053255;28;20029;-83
2023/03/26 03:00:55;;;;;;;45.15;21.75;;;6.40;99.90;;;;;;5053655;28;20049;-79
2023/03/26 03:03:26;;;;;;;38.10;19.60;;;6.50;99.90;;;;;;5052825;28;20035;-78
2023/03/26 03:05:56;;;;;;;45.73;21.87;;;6.50;99.90;;;;;;5054053;28;20021;-80
2023/03/26 03:08:25;;;;;;;41.05;20.85;;;6.50;99.90;;;;;;5053851;28;20322;-77
2023/03/26 03:10:57;;;;;;;58.40;26.63;;;6.50;99.90;;;;;;5054474;28;20029;-80
2023/03/26 03:13:22;;;;;;;;;;;6.50;99.90;;;;;;5053170;28;20033;-78
2023/03/26 03:15:48;;;;;;;61.47;28.02;;;6.50;99.90;;;;;;5054388;28;19908;-83
2023/03/26 03:18:14;;;;;;;41.53;19.38;;;6.50;99.90;;;;;;5053772;28;20364;-78
2023/03/26 03:20:40;;;;;;;41.70;19.80;;;6.50;99.90;;;;;;5053505;28;20032;-78
2023/03/26 03:23:06;;;;;;;62.63;28.13;;;6.50;99.90;;;;;;5051952;28;20044;-79
2023/03/26 03:25:32;;;;;;;46.25;21.10;;;6.50;99.90;;;;;;5052845;28;20036;-77
2023/03/26 03:27:58;;;;;;;47.78;21.88;;;6.40;99.90;;;;;;5053177;28;20052;-80
2023/03/26 03:30:24;;;;;;;38.28;18.88;;;6.50;99.90;;;;;;5054009;28;20451;-80
2023/03/26 03:32:50;;;;;;;33.45;16.95;;;6.50;99.90;;;;;;5052349;28;20028;-78
2023/03/26 03:35:16;;;;;;;29.50;15.63;;;6.50;99.90;;;;;;5052949;28;20033;-80
2023/03/26 03:37:41;;;;;;;26.88;14.15;;;6.50;99.90;;;;;;5052361;28;20107;-79
2023/03/26 03:40:09;;;;;;;25.90;13.10;;;6.40;99.90;;;;;;5053654;28;20040;-81
2023/03/26 03:42:36;;;;;;;27.92;14.68;;;6.30;99.90;;;;;;5052769;28;20469;-78
2023/03/26 03:45:03;;;;;;;22.63;13.00;;;6.30;99.90;;;;;;5054183;28;20112;-79
2023/03/26 03:47:29;;;;;;;34.42;14.07;;;6.20;99.90;;;;;;5052504;28;20032;-76
2023/03/26 03:49:55;;;;;;;32.60;17.30;;;6.20;99.90;;;;;;5053785;28;20037;-77
2023/03/26 03:52:21;;;;;;;38.22;16.33;;;6.20;99.90;;;;;;5054398;28;20029;-79
2023/03/26 03:54:47;;;;;;;30.73;16.15;;;6.20;99.90;;;;;;5053857;28;20100;-78
2023/03/26 03:57:14;;;;;;;28.30;14.40;;;6.20;99.90;;;;;;5053987;28;20036;-77
2023/03/26 03:59:40;;;;;;;24.25;12.95;;;6.20;99.90;;;;;;5053660;28;20423;-78
2023/03/26 04:02:06;;;;;;;27.05;13.52;;;6.20;99.90;;;;;;5053671;28;20090;-77
2023/03/26 04:04:33;;;;;;;27.60;14.45;;;6.10;99.90;;;;;;5053892;28;20071;-76
2023/03/26 04:06:58;;;;;;;32.65;14.25;;;6.10;99.90;;;;;;5053799;28;20065;-79
2023/03/26 04:09:24;;;;;;;29.75;15.50;;;6.10;99.90;;;;;;5053220;28;20060;-79
2023/03/26 04:11:50;;;;;;;35.13;15.90;;;6.10;99.90;;;;;;5053678;28;20029;-77
2023/03/26 04:14:16;;;;;;;31.23;15.20;;;6.10;99.90;;;;;;5052073;28;20048;-78
2023/03/26 04:16:41;;;;;;;30.20;14.85;;;6.10;99.90;;;;;;5051569;28;20025;-76
2023/03/26 04:19:07;;;;;;;27.27;12.98;;;6.10;99.90;;;;;;5052033;28;20029;-78
2023/03/26 04:21:36;;;;;;;34.88;13.27;;;6.10;99.90;;;;;;5051608;28;20241;-78
2023/03/26 04:24:03;;;;;;;30.83;14.68;;;6.00;99.90;;;;;;5047881;28;20025;-76
2023/03/26 04:26:29;;;;;;;31.48;15.98;;;6.00;99.90;;;;;;5053568;28;20041;-79
2023/03/26 04:28:59;;;;;;;35.10;19.02;;;6.00;99.90;;;;;;5052670;28;20025;-78
2023/03/26 04:31:29;;;;;;;31.63;17.52;;;5.90;99.90;;;;;;5052211;28;20035;-75
2023/03/26 04:34:17;;;;;;;41.45;16.05;;;5.90;99.90;;;;;;5053354;28;20036;-77
2023/03/26 04:36:45;;;;;;;28.20;12.32;;;5.80;99.90;;;;;;5052007;28;20025;-79
2023/03/26 04:39:12;;;;;;;23.67;10.88;;;5.70;99.90;;;;;;5056916;28;20039;-78
2023/03/26 04:41:38;;;;;;;22.95;10.48;;;5.70;99.90;;;;;;5056470;28;20437;-77
2023/03/26 04:44:04;;;;;;;19.98;9.63;;;5.80;99.90;;;;;;5056141;28;20554;-75
2023/03/26 04:46:32;;;;;;;21.15;9.90;;;5.80;99.90;;;;;;5056300;28;20035;-76
2023/03/26 04:48:58;;;;;;;17.95;8.27;;;5.80;99.90;;;;;;5056709;28;20544;-77
2023/03/26 04:51:26;;;;;;;17.67;10.00;;;5.80;99.90;;;;;;5055342;28;20033;-78
2023/03/26 04:53:56;;;;;;;38.03;16.77;;;5.80;99.90;;;;;;5056333;28;20032;-77
2023/03/26 04:57:03;;;;;;;28.00;14.70;;;5.90;99.90;;;;;;5055572;28;20056;-76
2023/03/26 04:59:33;;;;;;;28.48;14.38;;;5.90;99.90;;;;;;5052826;28;20048;-79
2023/03/26 05:02:01;;;;;;;29.20;14.45;;;6.00;99.90;;;;;;5056289;28;20055;-78
2023/03/26 05:04:30;;;;;;;45.05;20.13;;;6.00;99.90;;;;;;5054772;28;20111;-78
2023/03/26 05:06:57;;;;;;;68.00;30.50;;;6.00;99.90;;;;;;5055577;28;20040;-76
2023/03/26 05:09:24;;;;;;;62.03;25.20;;;6.10;99.90;;;;;;5056257;28;20025;-78
2023/03/26 05:11:50;;;;;;;57.28;22.42;;;6.10;99.90;;;;;;5056380;28;20056;-76
2023/03/26 05:14:17;;;;;;;49.60;22.38;;;6.20;99.90;;;;;;5055991;28;20028;-77
2023/03/26 05:16:43;;;;;;;47.50;21.63;;;6.30;99.90;;;;;;5055322;28;20380;-77
2023/03/26 05:19:09;;;;;;;41.95;20.45;;;6.30;99.90;;;;;;5054611;28;20075;-78
2023/03/26 05:21:35;;;;;;;41.33;18.42;;;6.40;99.90;;;;;;5055668;28;20049;-79
2023/03/26 05:24:01;;;;;;;42.20;17.70;;;6.60;99.90;;;;;;5056647;28;20110;-77
2023/03/26 05:26:28;;;;;;;44.97;22.67;;;6.60;99.90;;;;;;5055482;28;20502;-77
2023/03/26 05:28:55;;;;;;;46.95;20.45;;;6.70;99.90;;;;;;5054826;28;20044;-79
2023/03/26 05:31:21;;;;;;;52.70;26.20;;;6.80;99.90;;;;;;5054312;28;20074;-79
2023/03/26 05:33:47;;;;;;;53.08;24.63;;;6.90;99.90;;;;;;5055655;28;20086;-77
2023/03/26 05:36:14;;;;;;;49.90;25.27;;;7.00;99.90;;;;;;5055871;28;20032;-79
2023/03/26 05:38:40;;;;;;;49.60;24.77;;;7.10;99.90;;;;;;5055656;28;20391;-77
2023/03/26 05:41:08;;;;;;;67.05;30.17;;;7.10;99.90;;;;;;5055792;28;20133;-77
2023/03/26 05:43:34;;;;;;;56.00;24.60;;;7.20;99.90;;;;;;5055078;28;20051;-77
2023/03/26 05:46:00;;;;;;;46.63;21.77;;;7.30;99.90;;;;;;5055770;28;20028;-79
2023/03/26 05:48:27;;;;;;;49.70;24.17;;;7.30;99.90;;;;;;5055685;28;20379;-77
2023/03/26 05:50:55;;;;;;;46.90;21.13;;;7.40;99.90;;;;;;5055346;28;20025;-81
2023/03/26 05:53:22;;;;;;;47.05;20.30;;;7.50;99.90;;;;;;5054980;28;20024;-79
2023/03/26 05:55:56;;;;;;;52.85;21.33;;;7.50;99.90;;;;;;5053839;28;20027;-80
2023/03/26 05:58:26;;;;;;;49.05;23.17;;;7.60;99.90;;;;;;5055803;28;20513;-77
2023/03/26 06:01:01;;;;;;;53.78;28.88;;;7.80;99.90;;;;;;5055830;28;20025;-79
2023/03/26 06:03:27;;;;;;;38.08;18.50;;;7.90;99.90;;;;;;5055259;28;20486;-79
2023/03/26 06:05:52;;;;;;;22.88;12.15;;;8.10;99.90;;;;;;5055639;28;20021;-79
2023/03/26 06:08:19;;;;;;;22.60;10.82;;;8.20;99.90;;;;;;5055570;28;20380;-77
2023/03/26 06:10:45;;;;;;;29.80;13.25;;;8.20;99.90;;;;;;5055970;28;20028;-78
2023/03/26 06:13:12;;;;;;;27.05;11.93;;;8.30;99.90;;;;;;5055559;28;20017;-79
2023/03/26 06:15:38;;;;;;;23.98;10.93;;;8.40;99.90;;;;;;5055061;28;20029;-79
2023/03/26 06:18:04;;;;;;;26.33;13.55;;;8.40;99.90;;;;;;5055117;28;20154;-79
2023/03/26 06:20:29;;;;;;;27.63;16.58;;;8.50;99.90;;;;;;5053738;28;21500;-80
2023/03/26 06:22:55;;;;;;;18.15;11.73;;;8.60;99.90;;;;;;5054184;28;20051;-79
2023/03/26 06:25:21;;;;;;;14.55;7.90;;;8.80;99.90;;;;;;5053349;28;20171;-81
2023/03/26 06:27:46;;;;;;;15.45;10.65;;;8.90;99.90;;;;;;5052843;28;20442;-79
2023/03/26 06:30:12;;;;;;;12.90;6.07;;;9.10;99.90;;;;;;5053185;28;20029;-79
2023/03/26 06:32:38;;;;;;;14.65;9.25;;;9.20;99.90;;;;;;5055545;28;20383;-78
2023/03/26 06:35:05;;;;;;;12.32;5.80;;;9.30;99.90;;;;;;5055236;28;20025;-82
2023/03/26 06:37:30;;;;;;;13.75;6.15;;;9.50;99.90;;;;;;5055403;28;20025;-80
2023/03/26 06:39:56;;;;;;;16.98;8.00;;;9.80;99.90;;;;;;5054728;28;20036;-77
2023/03/26 06:42:22;;;;;;;12.40;6.45;;;10.00;99.90;;;;;;5053657;28;20033;-78
2023/03/26 06:44:47;;;;;;;9.55;4.80;;;10.20;99.90;;;;;;5054130;28;20028;-78
2023/03/26 06:47:14;;;;;;;12.85;5.25;;;10.40;99.90;;;;;;5054587;28;20387;-77
2023/03/26 06:49:40;;;;;;;9.90;4.63;;;10.60;99.90;;;;;;5053669;28;20052;-79
2023/03/26 06:52:06;;;;;;;11.50;4.75;;;10.90;99.90;;;;;;5054854;28;20028;-81
2023/03/26 06:54:32;;;;;;;15.27;8.18;;;11.00;99.90;;;;;;5053837;28;20025;-78
2023/03/26 06:56:58;;;;;;;17.60;13.15;;;11.20;99.90;;;;;;5053061;28;20068;-79
2023/03/26 06:59:26;;;;;;;9.30;5.30;;;11.40;99.90;;;;;;5054667;28;20025;-82
2023/03/26 07:01:51;;;;;;;8.07;4.50;;;11.60;99.90;;;;;;5053744;28;20090;-79
2023/03/26 07:04:17;;;;;;;6.72;4.13;;;11.80;99.90;;;;;;5054325;28;20120;-81
2023/03/26 07:06:43;;;;;;;6.35;3.60;;;12.00;99.90;;;;;;5053465;28;20032;-80
2023/03/26 07:09:09;;;;;;;11.40;4.32;;;12.20;99.90;;;;;;5053551;28;20029;-80
2023/03/26 07:11:35;;;;;;;6.18;4.45;;;12.40;99.90;;;;;;5053237;28;20124;-79
2023/03/26 07:14:00;;;;;;;9.23;3.88;;;12.40;99.90;;;;;;5053518;28;20025;-79
2023/03/26 07:16:26;;;;;;;6.85;4.00;;;12.60;99.90;;;;;;5053328;28;20047;-79
2023/03/26 07:18:54;;;;;;;11.82;5.85;;;12.80;99.90;;;;;;5054047;28;20060;-77
2023/03/26 07:21:20;;;;;;;15.50;9.05;;;13.00;99.90;;;;;;5054393;28;20021;-79
2023/03/26 07:23:47;;;;;;;10.38;5.07;;;13.10;99.90;;;;;;5054706;28;20482;-81
2023/03/26 07:26:39;;;;;;;28.50;12.60;;;13.30;99.90;;;;;;5053031;28;20356;-80
2023/03/26 07:29:38;;;;;;;55.05;28.00;;;13.40;99.90;;;;;;5054612;28;20033;-82
2023/03/26 07:32:13;;;;;;;5.93;3.75;;;13.60;99.90;;;;;;5049995;28;20186;-79
2023/03/26 07:35:15;;;;;;;20.25;9.73;;;13.80;99.90;;;;;;5054417;28;20017;-81
2023/03/26 07:38:08;;;;;;;10.05;4.20;;;14.00;99.90;;;;;;5054474;28;20040;-80
2023/03/26 07:40:37;;;;;;;20.42;9.43;;;14.30;99.90;;;;;;5055161;28;20035;-82
2023/03/26 07:43:27;;;;;;;9.77;4.40;;;14.50;99.90;;;;;;5069133;28;20020;-80
2023/03/26 07:45:53;;;;;;;3.88;2.03;;;14.90;99.90;;;;;;5052264;28;20025;-81
2023/03/26 07:48:28;;;;;;;4.28;2.30;;;15.00;97.10;;;;;;5055600;28;20090;-79
2023/03/26 07:50:55;;;;;;;3.35;2.58;;;15.00;95.80;;;;;;5045488;28;20071;-82
2023/03/26 07:53:22;;;;;;;5.45;3.45;;;15.10;95.00;;;;;;5052178;28;20029;-80
2023/03/26 07:56:16;;;;;;;4.40;2.58;;;15.40;95.80;;;;;;5052583;28;20029;-86
2023/03/26 07:59:03;;;;;;;3.63;2.58;;;15.60;93.40;;;;;;5037886;28;20486;-80
2023/03/26 08:01:59;;;;;;;7.07;4.03;;;15.90;93.60;;;;;;5052468;28;20071;-82
2023/03/26 08:05:00;;;;;;;3.58;2.17;;;16.10;90.40;;;;;;5053836;28;20540;-81
2023/03/26 08:07:45;;;;;;;3.65;1.58;;;16.40;81.00;;;;;;5045602;28;20793;-82
2023/03/26 08:10:13;;;;;;;6.15;2.10;;;16.50;79.40;;;;;;5052405;28;20036;-82
2023/03/26 08:12:59;;;;;;;2.65;1.88;;;16.70;76.00;;;;;;5053538;28;20083;-81
2023/03/26 08:15:32;;;;;;;3.67;2.63;;;16.60;74.00;;;;;;5052070;28;20036;-81
2023/03/26 08:18:26;;;;;;;3.28;2.20;;;16.80;73.70;;;;;;5056239;28;20092;-82
2023/03/26 08:21:06;;;;;;;3.97;2.47;;;17.00;73.50;;;;;;5050200;28;20498;-80
2023/03/26 08:24:00;;;;;;;2.40;1.40;;;17.40;60.20;;;;;;5052060;28;20045;-80
2023/03/26 08:26:26;;;;;;;3.50;1.10;;;17.30;56.10;;;;;;5049524;28;20041;-80
2023/03/26 08:29:31;;;;;;;2.75;1.75;;;17.60;52.70;;;;;;5052117;28;20489;-79
2023/03/26 08:31:58;;;;;;;2.63;1.58;;;17.70;55.80;;;;;;5050907;28;20501;-80
2023/03/26 08:34:24;;;;;;;4.13;2.55;;;18.00;57.30;;;;;;5052601;28;20025;-81
2023/03/26 08:36:50;;;;;;;4.45;3.30;;;18.00;50.40;;;;;;5052178;28;20029;-82
2023/03/26 08:39:17;;;;;;;1.30;1.20;;;17.90;48.10;;;;;;5053587;28;20441;-78
2023/03/26 08:41:48;;;;;;;2.72;1.83;;;18.00;48.10;;;;;;5053675;28;20025;-81
2023/03/26 08:44:46;;;;;;;2.60;1.85;;;18.30;47.70;;;;;;5053218;28;20024;-82
2023/03/26 08:47:33;;;;;;;4.53;2.90;;;17.80;46.90;;;;;;5051882;28;20048;-80
2023/03/26 08:50:19;;;;;;;4.43;2.10;;;17.60;47.70;;;;;;5051910;28;20079;-79
2023/03/26 08:53:11;;;;;;;2.85;1.80;;;17.70;47.60;;;;;;5053302;28;20104;-82
2023/03/26 08:55:55;;;;;;;4.13;2.78;;;18.10;48.00;;;;;;5053439;28;20021;-79
2023/03/26 08:58:59;;;;;;;5.15;3.40;;;18.50;48.00;;;;;;5051951;28;20457;-81
2023/03/26 09:01:33;;;;;;;4.40;2.30;;;18.70;47.10;;;;;;5030791;28;20041;-82
2023/03/26 09:04:11;;;;;;;4.80;3.08;;;18.70;45.70;;;;;;5014079;28;20051;-80
2023/03/26 09:06:45;;;;;;;7.10;3.53;;;18.80;44.30;;;;;;5014502;28;20033;-81
2023/03/26 09:09:35;;;;;;;4.70;3.95;;;18.80;45.40;;;;;;5014512;28;20092;-81
2023/03/26 09:12:27;;;;;;;2.78;2.00;;;19.20;45.50;;;;;;4994683;28;20173;-81
2023/03/26 09:15:07;;;;;;;7.75;4.60;;;19.40;43.80;;;;;;4994904;28;20404;-80
2023/03/26 09:17:54;;;;;;;11.27;6.13;;;19.30;43.80;;;;;;4994769;28;20034;-77
2023/03/26 09:20:35;;;;;;;10.55;5.75;;;19.40;42.90;;;;;;5002383;28;20033;-82
2023/03/26 09:23:29;;;;;;;9.15;5.20;;;19.70;42.20;;;;;;5023849;28;20049;-79
2023/03/26 09:26:03;;;;;;;4.13;2.45;;;19.80;43.00;;;;;;5018116;28;20041;-80
2023/03/26 09:29:03;;;;;;;4.32;2.78;;;19.40;41.90;;;;;;5021986;28;20045;-79
2023/03/26 09:32:15;;;;;;;3.20;2.15;;;18.60;41.40;;;;;;5003723;28;20041;-81
2023/03/26 09:35:33;;;;;;;5.88;2.58;;;18.20;45.10;;;;;;4998421;28;20029;-80
2023/03/26 09:38:10;;;;;;;15.02;7.63;;;17.70;42.60;;;;;;4989069;28;20070;-80
2023/03/26 09:40:49;;;;;;;8.50;3.97;;;17.50;44.10;;;;;;4992909;28;20029;-81
2023/03/26 09:43:35;;;;;;;19.42;9.98;;;17.40;45.20;;;;;;4992601;28;20401;-81
2023/03/26 09:46:44;;;;;;;19.15;9.40;;;17.50;46.40;;;;;;4994125;28;20032;-81
2023/03/26 09:49:38;;;;;;;21.23;8.35;;;17.70;43.40;;;;;;4979111;28;21314;-82
2023/03/26 09:52:18;;;;;;;4.40;2.88;;;17.90;45.00;;;;;;4994607;28;20034;-83
2023/03/26 09:54:52;;;;;;;22.20;10.20;;;17.60;43.10;;;;;;4973040;28;20150;-82
2023/03/26 09:57:57;;;;;;;57.72;26.23;;;17.30;43.00;;;;;;5001992;28;20041;-82
2023/03/26 10:00:48;;;;;;;12.77;7.65;;;17.10;42.90;;;;;;4992338;28;20054;-81
2023/03/26 10:03:39;;;;;;;12.07;6.70;;;17.30;43.80;;;;;;5004287;28;20117;-81
2023/03/26 10:06:31;;;;;;;3.50;2.27;;;17.50;45.20;;;;;;4992045;28;20034;-80
2023/03/26 10:09:01;;;;;;;3.47;1.80;;;17.60;44.70;;;;;;4993162;28;20485;-81
2023/03/26 10:11:42;;;;;;;15.77;7.97;;;17.50;44.10;;;;;;4996404;28;20273;-81
2023/03/26 10:14:22;;;;;;;6.25;3.95;;;17.40;43.30;;;;;;5026228;28;20172;-80
2023/03/26 10:17:14;;;;;;;10.27;4.68;;;17.30;42.50;;;;;;5053620;28;20044;-81
2023/03/26 10:20:16;;;;;;;3.88;2.05;;;17.10;43.60;;;;;;5052796;28;20037;-81
2023/03/26 10:22:57;;;;;;;13.32;9.68;;;16.90;44.30;;;;;;5052667;28;20056;-81
2023/03/26 10:25:41;;;;;;;3.83;2.85;;;17.00;44.40;;;;;;5052877;28;20426;-81
2023/03/26 10:28:32;;;;;;;8.52;5.65;;;16.90;43.90;;;;;;5051290;28;20133;-80
2023/03/26 10:31:36;;;;;;;8.05;5.05;;;17.00;44.60;;;;;;5052941;28;20061;-80
2023/03/26 10:34:05;;;;;;;3.05;1.35;;;17.30;45.40;;;;;;5052030;28;20025;-79
2023/03/26 10:37:05;;;;;;;9.93;4.55;;;17.50;45.00;;;;;;5050692;28;20021;-81
2023/03/26 10:39:49;;;;;;;10.35;5.50;;;17.70;45.50;;;;;;5050732;28;20566;-80
2023/03/26 10:42:30;;;;;;;4.63;2.42;;;18.50;45.70;;;;;;5053800;28;20464;-81
2023/03/26 10:45:23;;;;;;;12.57;6.55;;;19.50;44.00;;;;;;5054239;28;20107;-82
2023/03/26 10:48:29;;;;;;;4.35;3.45;;;19.60;39.70;;;;;;5053416;28;20043;-81
2023/03/26 10:51:32;;;;;;;9.30;5.78;;;20.50;38.20;;;;;;5053562;28;20384;-81
2023/03/26 10:54:40;;;;;;;3.53;2.50;;;21.20;39.00;;;;;;5052933;28;20038;-80
2023/03/26 10:57:12;;;;;;;12.45;3.53;;;;;;;;;;5053746;28;20033;-79
2023/03/26 10:59:38;;;;;;;6.35;4.07;;;;;;;;;;5050782;28;20059;-79
2023/03/26 11:02:13;;;;;;;6.65;4.55;;;;;;;;;;5053627;28;20021;-80
2023/03/26 11:04:58;;;;;;;4.65;2.88;;;;;;;;;;5058134;28;20394;-79
2023/03/26 11:07:53;;;;;;;9.32;4.60;;;;;;;;;;5040686;28;20121;-80
2023/03/26 11:10:44;;;;;;;5.57;3.53;;;22.60;36.90;;;;;;5053844;28;20044;-80
2023/03/26 11:13:18;;;;;;;4.60;3.05;;;;;;;;;;5053737;28;20025;-80
2023/03/26 11:15:56;;;;;;;3.50;2.15;;;;;;;;;;5053629;28;20024;-80
2023/03/26 11:18:47;;;;;;;5.80;1.98;;;23.20;36.10;;;;;;5053155;28;20029;-81
2023/03/26 11:21:16;;;;;;;2.03;1.20;;;;;;;;;;5060131;28;20029;-79
2023/03/26 11:24:01;;;;;;;3.65;2.40;;;;;;;;;;5068345;28;20044;-79
2023/03/26 11:26:30;;;;;;;5.57;3.40;;;22.90;46.30;;;;;;5053552;28;20375;-80
2023/03/26 11:28:57;;;;;;;2.55;1.90;;;;;;;;;;5054125;28;20487;-79
2023/03/26 11:31:32;;;;;;;3.78;2.60;;;;;;;;;;5053909;28;20063;-79
2023/03/26 11:34:04;;;;;;;5.93;3.67;;;23.20;76.50;;;;;;5054383;28;20025;-81
2023/03/26 11:36:35;;;;;;;3.13;1.60;;;23.10;31.90;;;;;;5054201;28;20067;-80
2023/03/26 11:39:03;;;;;;;5.25;3.50;;;;;;;;;;5053921;28;20025;-81
2023/03/26 11:41:30;;;;;;;2.38;1.65;;;;;;;;;;5054041;28;20033;-80
2023/03/26 11:43:56;;;;;;;6.32;3.17;;;;;;;;;;5052524;28;20028;-80
2023/03/26 11:46:23;;;;;;;5.80;3.33;;;23.20;32.70;;;;;;5053873;28;20517;-79
2023/03/26 11:48:58;;;;;;;3.13;1.77;;;22.90;33.20;;;;;;5052845;28;20060;-79
2023/03/26 11:51:35;;;;;;;4.80;3.05;;;23.60;36.40;;;;;;5052624;28;20182;-80
2023/03/26 11:54:02;;;;;;;5.03;2.90;;;23.30;33.80;;;;;;5052827;28;20467;-79
2023/03/26 11:56:52;;;;;;;5.32;2.38;;;23.30;34.30;;;;;;5054085;28;20029;-81
2023/03/26 11:59:29;;;;;;;7.78;3.40;;;23.00;33.50;;;;;;5072351;28;20132;-82
2023/03/26 12:02:37;;;;;;;3.72;2.25;;;23.20;35.80;;;;;;5072707;28;20025;-79
2023/03/26 12:05:16;;;;;;;5.63;3.67;;;;;;;;;;5067969;28;20036;-79
2023/03/26 12:07:45;;;;;;;10.60;6.13;;;;;;;;;;5072614;28;20029;-79
2023/03/26 12:10:33;;;;;;;6.65;4.22;;;23.50;31.70;;;;;;5073935;28;20019;-80
2023/03/26 12:13:02;;;;;;;4.57;2.65;;;23.30;33.40;;;;;;5073451;28;20032;-80
2023/03/26 12:15:30;;;;;;;4.43;2.83;;;;;;;;;;5058490;28;20025;-79
2023/03/26 12:17:57;;;;;;;7.38;2.92;;;;;;;;;;5053570;28;20017;-80
2023/03/26 12:20:23;;;;;;;10.15;5.80;;;23.90;51.00;;;;;;5051012;28;20032;-79
2023/03/26 12:22:51;;;;;;;1.92;1.73;;;23.10;31.30;;;;;;5051914;28;20049;-80
2023/03/26 12:25:24;;;;;;;7.55;4.15;;;22.60;32.30;;;;;;5052408;28;20070;-79
2023/03/26 12:28:01;;;;;;;4.32;2.65;;;21.80;34.00;;;;;;5053168;28;20487;-80
2023/03/26 12:30:36;;;;;;;3.25;2.13;;;21.10;34.40;;;;;;5052508;28;20424;-80
2023/03/26 12:33:16;;;;;;;3.80;2.53;;;20.90;37.00;;;;;;5053725;28;20032;-80
2023/03/26 12:35:43;;;;;;;11.27;7.75;;;20.60;36.20;;;;;;5053732;28;20056;-80
2023/03/26 12:38:22;;;;;;;11.77;7.40;;;20.30;33.30;;;;;;5052186;28;20032;-81
2023/03/26 12:41:03;;;;;;;20.27;10.70;;;19.70;34.70;;;;;;5051845;28;20052;-82
2023/03/26 12:43:35;;;;;;;35.28;23.63;;;19.60;35.00;;;;;;5072526;28;20036;-80
2023/03/26 12:46:01;;;;;;;21.58;13.48;;;19.50;37.00;;;;;;5052777;28;20028;-79
2023/03/26 12:48:28;;;;;;;9.73;7.03;;;19.30;38.90;;;;;;5051649;28;20040;-80
2023/03/26 12:51:23;;;;;;;9.25;5.05;;;19.30;38.30;;;;;;5051907;28;20025;-78
2023/03/26 12:53:52;;;;;;;11.52;6.35;;;19.20;38.30;;;;;;5032315;28;20037;-78
2023/03/26 12:56:20;;;;;;;10.57;6.55;;;19.30;37.80;;;;;;5034270;28;20029;-80
2023/03/26 12:59:02;;;;;;;11.63;5.38;;;19.50;37.30;;;;;;5037464;28;20033;-79
2023/03/26 13:01:32;;;;;;;4.78;2.85;;;19.40;37.00;;;;;;5036205;28;20116;-79
2023/03/26 13:04:14;;;;;;;14.27;4.90;;;19.80;38.90;;;;;;5040658;28;20104;-80
2023/03/26 13:06:49;;;;;;;17.02;7.90;;;20.00;38.70;;;;;;5055795;28;20025;-80
2023/03/26 13:09:30;;;;;;;14.40;6.72;;;20.30;38.60;;;;;;5058000;28;20040;-80
2023/03/26 13:12:07;;;;;;;12.55;4.72;;;20.40;37.80;;;;;;5055791;28;20119;-77
2023/03/26 13:14:49;;;;;;;6.70;3.75;;;20.50;37.00;;;;;;5055801;28;20482;-81
2023/03/26 13:17:21;;;;;;;7.30;3.83;;;21.00;33.40;;;;;;5055456;28;20448;-80
2023/03/26 13:19:58;;;;;;;10.55;4.63;;;21.20;35.30;;;;;;5057113;28;20033;-81
2023/03/26 13:22:46;;;;;;;4.80;3.05;;;21.40;34.30;;;;;;5056856;28;20502;-80